Time;durP1;ratioP1;P1;durP2;ratioP2;P2;SDS_P1;SDS_P2;PMS_P1;PMS_P2;Temp;Humidity;BMP_temperature;BMP_pressure;BME280_temperature;BME280_humidity;BME280_pressure;Samples;Min_cycle;Max_cycle;Signal;HPM_P1;HPM_P2
2023/03/26 00:02:07;;;;;;;28.97;26.60;;;;;;;;;;5043603;28;20995;-82
2023/03/26 00:04:34;;;;;;;25.47;23.73;;;;;;;;;;5048261;28;20442;-81
2023/03/26 00:07:01;;;;;;;25.93;24.03;;;;;;;;;;5052286;28;20456;-81
2023/03/26 00:09:29;;;;;;;26.83;24.60;;;;;;;;;;5043740;28;20463;-82
2023/03/26 00:11:56;;;;;;;22.70;21.20;;;;;;;;;;5050686;28;20534;-82
2023/03/26 00:14:25;;;;;;;25.30;22.83;;;;;;;;;;5060804;28;20458;-82
2023/03/26 00:16:52;;;;;;;24.13;22.60;;;;;;;;;;5061678;28;20460;-81
2023/03/26 00:19:20;;;;;;;26.30;24.07;;;;;;;;;;5053523;28;20472;-82
2023/03/26 00:21:47;;;;;;;25.73;23.20;;;;;;;;;;5047017;28;20485;-82
2023/03/26 00:24:15;;;;;;;26.63;24.77;;;;;;;;;;5042206;28;20449;-82
2023/03/26 00:26:42;;;;;;;26.43;24.03;;;;;;;;;;5041374;28;20840;-82
2023/03/26 00:29:10;;;;;;;25.77;23.70;;;;;;;;;;5041114;28;20548;-82
2023/03/26 00:31:44;;;;;;;25.87;23.47;;;;;;;;;;5043255;28;20454;-81
2023/03/26 00:34:14;;;;;;;24.87;23.03;;;;;;;;;;5055956;28;20445;-82
2023/03/26 00:36:42;;;;;;;25.20;23.30;;;;;;;;;;5045624;28;20439;-81
2023/03/26 00:39:09;;;;;;;24.37;22.70;;;;;;;;;;5051966;28;20453;-82
2023/03/26 00:41:41;;;;;;;26.40;24.35;;;;;;;;;;5040724;28;20516;-81
2023/03/26 00:44:09;;;;;;;23.60;22.23;;;;;;;;;;5040526;28;20564;-81
2023/03/26 00:46:36;;;;;;;25.87;24.13;;;;;;;;;;5039957;28;20486;-81
2023/03/26 00:49:04;;;;;;;26.77;24.20;;;;;;;;;;5040201;28;20891;-81
2023/03/26 00:51:32;;;;;;;25.77;24.00;;;;;;;;;;5040547;28;20481;-81
2023/03/26 00:53:59;;;;;;;25.87;23.47;;;;;;;;;;5038225;28;20466;-81
2023/03/26 00:56:26;;;;;;;22.73;21.40;;;;;;;;;;5036408;28;20461;-81
2023/03/26 00:58:54;;;;;;;21.00;19.80;;;;;;;;;;5036387;28;20494;-80
2023/03/26 01:01:26;;;;;;;24.80;23.03;;;;;;;;;;5037311;28;20452;-80
2023/03/26 01:03:57;;;;;;;26.43;23.93;;;;;;;;;;5037288;28;20439;-81
2023/03/26 01:06:31;;;;;;;24.23;22.60;;;;;;;;;;5036632;28;20410;-81
2023/03/26 01:09:02;;;;;;;24.77;23.00;;;;;;;;;;5037880;28;20566;-81
2023/03/26 01:11:30;;;;;;;24.23;22.70;;;;;;;;;;5038366;28;20841;-81
2023/03/26 01:13:59;;;;;;;24.80;23.37;;;;;;;;;;5037411;28;20448;-81
2023/03/26 01:16:27;;;;;;;28.73;25.63;;;;;;;;;;5036559;28;20497;-82
2023/03/26 01:18:57;;;;;;;22.53;21.10;;;;;;;;;;5037030;28;20475;-81
2023/03/26 01:21:29;;;;;;;25.63;23.07;;;;;;;;;;5036843;28;20465;-81
2023/03/26 01:23:58;;;;;;;25.30;23.60;;;;;;;;;;5036920;28;20506;-81
2023/03/26 01:26:32;;;;;;;24.20;22.07;;;;;;;;;;5036733;28;20455;-81
2023/03/26 01:29:02;;;;;;;23.57;22.07;;;;;;;;;;5022067;28;20534;-81
2023/03/26 01:31:35;;;;;;;23.17;21.47;;;;;;;;;;5016260;28;20464;-81
2023/03/26 01:34:06;;;;;;;21.80;20.60;;;;;;;;;;5016737;28;20920;-81
2023/03/26 01:36:35;;;;;;;22.83;21.03;;;;;;;;;;5016363;28;20441;-81
2023/03/26 01:39:06;;;;;;;23.47;21.77;;;;;;;;;;5016595;28;20450;-81
2023/03/26 01:41:39;;;;;;;22.90;21.50;;;;;;;;;;5016448;28;20450;-81
2023/03/26 01:44:08;;;;;;;23.33;21.65;;;;;;;;;;5016677;28;20505;-81
2023/03/26 01:46:36;;;;;;;22.23;20.70;;;;;;;;;;5016028;28;20205;-81
2023/03/26 01:49:03;;;;;;;23.20;21.30;;;;;;;;;;5016504;28;20563;-82
2023/03/26 01:51:32;;;;;;;22.00;20.80;;;;;;;;;;5016242;28;20442;-81
2023/03/26 01:54:00;;;;;;;23.20;21.60;;;;;;;;;;5016136;28;20208;-81
2023/03/26 01:56:32;;;;;;;23.10;21.80;;;;;;;;;;5015045;28;20479;-81
2023/03/26 01:59:07;;;;;;;24.90;23.03;;;;;;;;;;5016443;28;20468;-82
2023/03/26 02:01:43;;;;;;;25.50;23.70;;;;;;;;;;5016238;28;20464;-82
2023/03/26 02:04:16;;;;;;;25.35;23.63;;;;;;;;;;5016103;28;20443;-82
2023/03/26 02:06:45;;;;;;;25.03;23.40;;;;;;;;;;5015613;28;20189;-82
2023/03/26 02:09:13;;;;;;;23.10;21.60;;;;;;;;;;5015536;28;20999;-82
2023/03/26 02:11:42;;;;;;;24.00;22.00;;;;;;;;;;5016291;28;20499;-82
2023/03/26 02:14:10;;;;;;;23.30;21.80;;;;;;;;;;5016134;28;20506;-82
2023/03/26 02:16:37;;;;;;;26.73;24.27;;;;;;;;;;5015315;28;20925;-82
2023/03/26 02:19:04;;;;;;;24.30;22.57;;;;;;;;;;5015860;28;20468;-82
2023/03/26 02:21:32;;;;;;;23.20;21.67;;;;;;;;;;5015721;28;20530;-82
2023/03/26 02:24:02;;;;;;;24.47;22.60;;;;;;;;;;5016034;28;20449;-82
2023/03/26 02:26:30;;;;;;;24.80;22.80;;;;;;;;;;5015211;28;20996;-82
2023/03/26 02:28:58;;;;;;;24.40;22.90;;;;;;;;;;5015117;28;20582;-82
2023/03/26 02:31:26;;;;;;;22.10;20.83;;;;;;;;;;5016015;28;20440;-82
2023/03/26 02:33:54;;;;;;;23.17;21.47;;;;;;;;;;5016041;28;20459;-82
2023/03/26 02:36:26;;;;;;;23.47;21.77;;;;;;;;;;5015144;28;20431;-82
2023/03/26 02:38:54;;;;;;;22.90;21.40;;;;;;;;;;5015816;28;20451;-82
2023/03/26 02:41:21;;;;;;;25.37;23.17;;;;;;;;;;5015612;28;20482;-82
2023/03/26 02:43:48;;;;;;;24.10;21.57;;;;;;;;;;5015663;28;20455;-82
2023/03/26 02:46:17;;;;;;;22.90;21.27;;;;;;;;;;5015050;28;20504;-82
2023/03/26 02:48:43;;;;;;;21.43;20.33;;;;;;;;;;5015809;28;20472;-82
2023/03/26 02:51:11;;;;;;;24.87;22.60;;;;;;;;;;5015260;28;20843;-82
2023/03/26 02:53:38;;;;;;;23.87;22.03;;;;;;;;;;5015354;28;20470;-82
2023/03/26 02:56:05;;;;;;;25.93;24.07;;;;;;;;;;5015126;28;20459;-82
2023/03/26 02:58:32;;;;;;;23.03;21.53;;;;;;;;;;5016627;28;20481;-81
2023/03/26 03:01:02;;;;;;;24.70;23.00;;;;;;;;;;5015410;28;20444;-82
2023/03/26 03:03:30;;;;;;;24.70;22.90;;;;;;;;;;5015295;28;20464;-82
2023/03/26 03:05:58;;;;;;;22.63;20.93;;;;;;;;;;5015043;28;20478;-82
2023/03/26 03:08:26;;;;;;;26.67;24.17;;;;;;;;;;5015048;28;20992;-82
2023/03/26 03:10:57;;;;;;;24.60;22.70;;;;;;;;;;5015974;28;20465;-82
2023/03/26 03:13:24;;;;;;;23.77;22.10;;;;;;;;;;5015679;28;20451;-82
2023/03/26 03:15:51;;;;;;;25.27;23.10;;;;;;;;;;5015790;28;20452;-82
2023/03/26 03:18:18;;;;;;;25.27;23.23;;;;;;;;;;5015482;28;20563;-82
2023/03/26 03:20:47;;;;;;;25.20;23.30;;;;;;;;;;5016697;28;20427;-82
2023/03/26 03:23:14;;;;;;;27.30;24.60;;;;;;;;;;5015769;28;20492;-82
2023/03/26 03:25:41;;;;;;;26.73;24.13;;;;;;;;;;5016801;28;20478;-83
2023/03/26 03:28:08;;;;;;;27.13;24.67;;;;;;;;;;5016874;28;20534;-83
2023/03/26 03:30:35;;;;;;;28.67;26.27;;;;;;;;;;5017210;28;20440;-82
2023/03/26 03:33:04;;;;;;;25.97;23.57;;;;;;;;;;5019857;28;20433;-82
2023/03/26 03:35:32;;;;;;;27.27;24.73;;;;;;;;;;5021369;28;20463;-82
2023/03/26 03:38:00;;;;;;;26.90;24.70;;;;;;;;;;5020213;28;20471;-82
2023/03/26 03:40:27;;;;;;;27.47;24.90;;;;;;;;;;5015980;28;20448;-82
2023/03/26 03:42:54;;;;;;;29.77;26.92;;;;;;;;;;5015695;28;20482;-82
2023/03/26 03:45:21;;;;;;;30.20;27.00;;;;;;;;;;5015082;28;20210;-82
2023/03/26 03:47:48;;;;;;;36.73;27.70;;;;;;;;;;5015268;28;20211;-82
2023/03/26 03:50:15;;;;;;;28.73;26.03;;;;;;;;;;5015347;28;20487;-82
2023/03/26 03:52:42;;;;;;;29.80;27.13;;;;;;;;;;5015510;28;20423;-82
2023/03/26 03:55:12;;;;;;;31.10;27.90;;;;;;;;;;5015159;28;20482;-82
2023/03/26 03:57:40;;;;;;;31.90;28.90;;;;;;;;;;5015106;28;20442;-82
2023/03/26 04:00:08;;;;;;;31.83;28.60;;;;;;;;;;5014811;28;20950;-82
2023/03/26 04:02:36;;;;;;;33.43;30.17;;;;;;;;;;5015254;28;20886;-82
2023/03/26 04:05:03;;;;;;;31.33;28.60;;;;;;;;;;5015589;28;20459;-82
2023/03/26 04:07:31;;;;;;;30.23;27.57;;;;;;;;;;5014786;28;20448;-82
2023/03/26 04:10:00;;;;;;;36.53;29.20;;;;;;;;;;5014585;28;20465;-82
2023/03/26 04:12:29;;;;;;;32.67;29.15;;;;;;;;;;5015050;28;20447;-82
2023/03/26 04:14:56;;;;;;;30.60;28.00;;;;;;;;;;5015226;28;20260;-82
2023/03/26 04:17:24;;;;;;;32.97;30.00;;;;;;;;;;5014947;28;20536;-82
2023/03/26 04:19:53;;;;;;;35.83;31.60;;;;;;;;;;5015020;28;20471;-82
2023/03/26 04:22:20;;;;;;;35.63;32.00;;;;;;;;;;5014806;28;20478;-82
2023/03/26 04:24:48;;;;;;;32.97;29.93;;;;;;;;;;5014563;28;20533;-82
2023/03/26 04:27:16;;;;;;;37.20;33.20;;;;;;;;;;5014785;28;20449;-82
2023/03/26 04:29:46;;;;;;;36.87;33.23;;;;;;;;;;5016548;28;20480;-82
2023/03/26 04:32:19;;;;;;;35.83;32.43;;;;;;;;;;5018688;28;20458;-82
2023/03/26 04:34:46;;;;;;;36.97;33.40;;;;;;;;;;5018982;28;20844;-82
2023/03/26 04:37:18;;;;;;;36.20;32.70;;;;;;;;;;5018091;28;20967;-82
2023/03/26 04:39:45;;;;;;;38.60;34.43;;;;;;;;;;5018196;28;20462;-82
2023/03/26 04:42:13;;;;;;;43.87;35.20;;;;;;;;;;5018972;28;20465;-82
2023/03/26 04:44:41;;;;;;;41.20;37.10;;;;;;;;;;5019215;28;20460;-82
2023/03/26 04:47:12;;;;;;;39.03;35.07;;;;;;;;;;5018284;28;20455;-82
2023/03/26 04:49:40;;;;;;;37.37;33.67;;;;;;;;;;5018119;28;21023;-82
2023/03/26 04:52:07;;;;;;;37.87;34.07;;;;;;;;;;5019011;28;20450;-82
2023/03/26 04:54:34;;;;;;;36.97;33.17;;;;;;;;;;5033948;28;20444;-82
2023/03/26 04:57:03;;;;;;;36.00;32.33;;;;;;;;;;5038373;28;20423;-82
2023/03/26 04:59:33;;;;;;;34.37;31.00;;;;;;;;;;5038505;28;20495;-82
2023/03/26 05:02:01;;;;;;;34.13;29.80;;;;;;;;;;5021223;28;20482;-83
2023/03/26 05:04:30;;;;;;;34.33;30.70;;;;;;;;;;5020692;28;20443;-83
2023/03/26 05:06:58;;;;;;;39.77;30.00;;;;;;;;;;5020325;28;20454;-83
2023/03/26 05:09:25;;;;;;;32.47;29.37;;;;;;;;;;5019760;28;20833;-82
2023/03/26 05:11:52;;;;;;;30.07;27.20;;;;;;;;;;5020256;28;20448;-82
2023/03/26 05:14:20;;;;;;;31.73;28.73;;;;;;;;;;5019929;28;20441;-82
2023/03/26 05:16:49;;;;;;;32.90;29.50;;;;;;;;;;5019354;28;20457;-82
2023/03/26 05:19:16;;;;;;;33.20;28.73;;;;;;;;;;5019566;28;20443;-82
2023/03/26 05:21:44;;;;;;;33.80;27.83;;;;;;;;;;5018923;28;21012;-82
2023/03/26 05:24:12;;;;;;;34.13;27.93;;;;;;;;;;5021432;28;20448;-79
2023/03/26 05:26:39;;;;;;;28.70;26.10;;;;;;;;;;5022015;28;20468;-79
2023/03/26 05:29:06;;;;;;;29.13;26.50;;;;;;;;;;5021202;28;20480;-79
2023/03/26 05:31:33;;;;;;;32.83;26.97;;;;;;;;;;5019361;28;20423;-82
2023/03/26 05:34:00;;;;;;;33.73;27.00;;;;;;;;;;5019098;28;20463;-82
2023/03/26 05:36:27;;;;;;;30.97;27.73;;;;;;;;;;5018320;28;20455;-79
2023/03/26 05:38:56;;;;;;;31.57;28.87;;;;;;;;;;5020001;28;20460;-79
2023/03/26 05:41:23;;;;;;;29.70;26.93;;;;;;;;;;5018332;28;20850;-79
2023/03/26 05:43:50;;;;;;;31.80;26.37;;;;;;;;;;5019858;28;20487;-79
2023/03/26 05:46:19;;;;;;;29.80;27.10;;;;;;;;;;5019446;28;20507;-79
2023/03/26 05:48:46;;;;;;;31.17;27.20;;;;;;;;;;5019068;28;20504;-79
2023/03/26 05:51:14;;;;;;;29.00;25.30;;;;;;;;;;5019222;28;20427;-79
2023/03/26 05:53:41;;;;;;;29.70;26.70;;;;;;;;;;5019207;28;20440;-79
2023/03/26 05:56:10;;;;;;;29.90;26.87;;;;;;;;;;5018148;28;20451;-79
2023/03/26 05:58:37;;;;;;;38.60;26.07;;;;;;;;;;5018360;28;20479;-79
2023/03/26 06:01:07;;;;;;;30.37;26.83;;;;;;;;;;5018541;28;20451;-79
2023/03/26 06:03:34;;;;;;;37.23;26.90;;;;;;;;;;5018691;28;20484;-79
2023/03/26 06:06:02;;;;;;;28.10;25.20;;;;;;;;;;5017988;28;20456;-79
2023/03/26 06:08:30;;;;;;;39.20;25.83;;;;;;;;;;5018730;28;20506;-79
2023/03/26 06:11:00;;;;;;;28.30;25.53;;;;;;;;;;5018163;28;20964;-79
2023/03/26 06:13:29;;;;;;;35.33;25.67;;;;;;;;;;5017510;28;20454;-79
2023/03/26 06:15:57;;;;;;;30.47;24.23;;;;;;;;;;5017935;28;20990;-79
2023/03/26 06:18:24;;;;;;;26.90;23.70;;;;;;;;;;5018556;28;20549;-79
2023/03/26 06:20:52;;;;;;;29.77;23.33;;;;;;;;;;5018701;28;20514;-79
2023/03/26 06:23:19;;;;;;;28.77;23.43;;;;;;;;;;5018386;28;20500;-79
2023/03/26 06:25:46;;;;;;;29.40;22.60;;;;;;;;;;5018253;28;20859;-79
2023/03/26 06:28:14;;;;;;;38.93;25.90;;;;;;;;;;5018179;28;20475;-79
2023/03/26 06:30:42;;;;;;;26.03;23.77;;;;;;;;;;5018169;28;20442;-79
2023/03/26 06:33:09;;;;;;;34.13;25.00;;;;;;;;;;5018000;28;20855;-79
2023/03/26 06:35:36;;;;;;;29.43;24.57;;;;;;;;;;5017551;28;20888;-79
2023/03/26 06:38:04;;;;;;;28.40;25.40;;;;;;;;;;5018194;28;20862;-79
2023/03/26 06:40:31;;;;;;;26.00;23.60;;;;;;;;;;5029580;28;20425;-79
2023/03/26 06:42:59;;;;;;;26.20;23.67;;;;;;;;;;5038536;28;20481;-80
2023/03/26 06:45:26;;;;;;;28.57;24.07;;;;;;;;;;5038311;28;20918;-79
2023/03/26 06:47:55;;;;;;;27.43;23.93;;;;;;;;;;5038212;28;20442;-79
2023/03/26 06:50:22;;;;;;;24.13;21.93;;;;;;;;;;5038923;28;20447;-79
2023/03/26 06:52:50;;;;;;;26.03;23.27;;;;;;;;;;5041984;28;20473;-80
2023/03/26 06:55:17;;;;;;;26.53;22.73;;;;;;;;;;5035990;28;20492;-80
2023/03/26 06:57:44;;;;;;;27.90;25.10;;;;;;;;;;5036068;28;20505;-80
2023/03/26 07:00:12;;;;;;;25.97;22.67;;;;;;;;;;5037400;28;20433;-80
2023/03/26 07:02:39;;;;;;;29.80;26.60;;;;;;;;;;5037133;28;20522;-80
2023/03/26 07:05:08;;;;;;;35.10;24.20;;;;;;;;;;5037259;28;20505;-80
2023/03/26 07:07:35;;;;;;;26.70;23.70;;;;;;;;;;5036969;28;20484;-80
2023/03/26 07:10:02;;;;;;;27.50;22.97;;;;;;;;;;5037345;28;20450;-80
2023/03/26 07:12:29;;;;;;;27.23;23.47;;;;;;;;;;5037550;28;20432;-80
2023/03/26 07:14:56;;;;;;;24.60;22.40;;;;;;;;;;5037714;28;20422;-80
2023/03/26 07:17:23;;;;;;;26.67;23.87;;;;;;;;;;5037319;28;20421;-80
2023/03/26 07:19:51;;;;;;;25.77;23.40;;;;;;;;;;5041234;28;20486;-80
2023/03/26 07:22:21;;;;;;;26.70;23.20;;;;;;;;;;5045722;28;20483;-80
2023/03/26 07:24:49;;;;;;;31.23;23.37;;;;;;;;;;5044526;28;20474;-80
2023/03/26 07:27:25;;;;;;;24.53;22.20;;;;;;;;;;5043989;28;20416;-80
2023/03/26 07:29:55;;;;;;;34.57;31.17;;;;;;;;;;5041787;28;20483;-80
2023/03/26 07:32:25;;;;;;;35.60;30.00;;;;;;;;;;5041401;28;20451;-80
2023/03/26 07:34:55;;;;;;;35.80;32.30;;;;;;;;;;5041801;28;20443;-80
2023/03/26 07:37:33;;;;;;;34.87;27.63;;;;;;;;;;5041263;28;20422;-80
2023/03/26 07:40:03;;;;;;;28.07;25.37;;;;;;;;;;5042872;28;20427;-80
2023/03/26 07:42:36;;;;;;;29.37;25.63;;;;;;;;;;5042741;28;20443;-80
2023/03/26 07:45:11;;;;;;;40.90;26.87;;;;;;;;;;5041807;28;20468;-80
2023/03/26 07:47:38;;;;;;;30.27;27.27;;;;;;;;;;5040719;28;20442;-80
2023/03/26 07:50:06;;;;;;;30.07;26.97;;;;;;;;;;5041560;28;20419;-80
2023/03/26 07:52:34;;;;;;;33.27;24.87;;;;;;;;;;5041913;28;20455;-80
2023/03/26 07:55:02;;;;;;;33.90;27.33;;;;;;;;;;5040569;28;20445;-80
2023/03/26 07:57:35;;;;;;;36.53;27.17;;;;;;;;;;5019353;28;20500;-80
2023/03/26 08:00:07;;;;;;;30.60;26.50;;;;;;;;;;5017478;28;20467;-80
2023/03/26 08:02:47;;;;;;;28.80;26.00;;;;;;;;;;5017309;28;20466;-80
2023/03/26 08:05:20;;;;;;;30.90;27.23;;;;;;;;;;5023130;28;20950;-80
2023/03/26 08:07:56;;;;;;;32.03;28.17;;;;;;;;;;5022515;28;20942;-80
2023/03/26 08:10:26;;;;;;;33.70;27.87;;;;;;;;;;5024034;28;20403;-80
2023/03/26 08:12:55;;;;;;;34.17;28.60;;;;;;;;;;5023276;28;21071;-80
2023/03/26 08:15:28;;;;;;;32.33;28.90;;;;;;;;;;5023278;28;20567;-80
2023/03/26 08:17:58;;;;;;;31.70;28.40;;;;;;;;;;5023180;28;20446;-80
2023/03/26 08:20:31;;;;;;;31.60;28.30;;;;;;;;;;5025532;28;20442;-80
2023/03/26 08:23:03;;;;;;;33.30;28.60;;;;;;;;;;5023676;28;20533;-80
2023/03/26 08:25:32;;;;;;;32.50;28.20;;;;;;;;;;5022191;28;20435;-79
2023/03/26 08:28:04;;;;;;;37.93;29.50;;;;;;;;;;5022211;28;20442;-80
2023/03/26 08:30:31;;;;;;;33.60;27.00;;;;;;;;;;5021527;28;20820;-80
2023/03/26 08:32:59;;;;;;;36.33;28.70;;;;;;;;;;5021908;28;20922;-80
2023/03/26 08:35:27;;;;;;;33.50;29.23;;;;;;;;;;5018486;28;20450;-80
2023/03/26 08:37:54;;;;;;;31.20;27.90;;;;;;;;;;5020294;28;20489;-80
2023/03/26 08:40:30;;;;;;;30.50;27.03;;;;;;;;;;5020243;28;20458;-80
2023/03/26 08:43:18;;;;;;;45.77;28.03;;;;;;;;;;5021495;28;20509;-80
2023/03/26 08:46:01;;;;;;;29.90;26.70;;;;;;;;;;5021749;28;20432;-80
2023/03/26 08:48:46;;;;;;;31.97;26.67;;;;;;;;;;5021797;28;20480;-80
2023/03/26 08:51:31;;;;;;;35.30;27.00;;;;;;;;;;5001083;28;20419;-80
2023/03/26 08:54:19;;;;;;;31.57;28.43;;;;;;;;;;5023036;28;20419;-80
2023/03/26 08:56:52;;;;;;;30.40;27.13;;;;;;;;;;5020987;28;20999;-80
2023/03/26 08:59:43;;;;;;;28.80;26.00;;;;;;;;;;5021570;28;20484;-80
2023/03/26 09:02:27;;;;;;;33.03;27.40;;;;;;;;;;5021101;28;20448;-80
2023/03/26 09:05:13;;;;;;;34.50;28.90;;;;;;;;;;5010393;28;20822;-80
2023/03/26 09:07:57;;;;;;;32.23;26.27;;;;;;;;;;5019393;28;20958;-84
2023/03/26 09:10:45;;;;;;;30.83;27.63;;;;;;;;;;5021116;28;20433;-84
2023/03/26 09:13:22;;;;;;;29.23;26.60;;;;;;;;;;5016890;28;20452;-84
2023/03/26 09:16:09;;;;;;;33.70;29.23;;;;;;;;;;5018742;28;20408;-84
2023/03/26 09:18:44;;;;;;;36.10;27.90;;;;;;;;;;5020469;28;20464;-84
2023/03/26 09:21:24;;;;;;;36.73;28.47;;;;;;;;;;5020500;28;20805;-84
2023/03/26 09:24:09;;;;;;;30.87;27.70;;;;;;;;;;5022759;28;20524;-83
2023/03/26 09:26:45;;;;;;;32.67;27.40;;;;;;;;;;5019817;28;20484;-84
2023/03/26 09:29:38;;;;;;;31.03;27.73;;;;;;;;;;5018370;28;20468;-83
2023/03/26 09:32:16;;;;;;;32.13;28.93;;;;;;;;;;5022566;28;20841;-84
2023/03/26 09:34:56;;;;;;;30.57;27.67;;;;;;;;;;5037039;28;20425;-84
2023/03/26 09:37:26;;;;;;;36.60;27.30;;;;;;;;;;5036914;28;20448;-84
2023/03/26 09:40:04;;;;;;;30.03;26.90;;;;;;;;;;5032648;28;20500;-85
2023/03/26 09:42:35;;;;;;;31.83;28.50;;;;;;;;;;5026718;28;20423;-85
2023/03/26 09:45:21;;;;;;;30.57;27.17;;;;;;;;;;5026046;28;20443;-83
2023/03/26 09:47:58;;;;;;;28.93;26.03;;;;;;;;;;5024863;28;20435;-82
2023/03/26 09:50:36;;;;;;;28.80;25.80;;;;;;;;;;5025111;28;20938;-82
2023/03/26 09:53:16;;;;;;;30.60;26.77;;;;;;;;;;5025259;28;20419;-82
2023/03/26 09:55:50;;;;;;;28.53;25.93;;;;;;;;;;5024658;28;20442;-82
2023/03/26 09:58:36;;;;;;;31.13;28.13;;;;;;;;;;5024611;28;20474;-83
2023/03/26 10:01:09;;;;;;;32.53;26.63;;;;;;;;;;5021831;28;20434;-82
2023/03/26 10:03:43;;;;;;;33.80;26.60;;;;;;;;;;5023848;28;20582;-83
2023/03/26 10:06:27;;;;;;;30.40;27.27;;;;;;;;;;5023940;28;20432;-82
2023/03/26 10:09:00;;;;;;;29.77;26.60;;;;;;;;;;5021047;28;20864;-84
2023/03/26 10:11:33;;;;;;;29.27;25.73;;;;;;;;;;5020585;28;20453;-83
2023/03/26 10:14:03;;;;;;;28.20;25.40;;;;;;;;;;5019099;28;20429;-82
2023/03/26 10:16:35;;;;;;;32.77;26.10;;;;;;;;;;5020535;28;20528;-81
2023/03/26 10:19:10;;;;;;;29.20;26.17;;;;;;;;;;5024038;28;20482;-81
2023/03/26 10:21:41;;;;;;;31.80;28.33;;;;;;;;;;5022897;28;20913;-81
2023/03/26 10:24:16;;;;;;;31.23;27.40;;;;;;;;;;5022790;28;20470;-81
2023/03/26 10:26:53;;;;;;;36.70;29.17;;;;;;;;;;5022950;28;20452;-81
2023/03/26 10:29:41;;;;;;;32.07;28.67;;;;;;;;;;5022064;28;20470;-81
2023/03/26 10:32:18;;;;;;;30.00;26.80;;;;;;;;;;5019343;28;20497;-81
2023/03/26 10:34:51;;;;;;;50.97;36.10;;;;;;;;;;5022693;28;20759;-81
2023/03/26 10:37:22;;;;;;;31.20;27.70;;;;;;;;;;5021694;28;20949;-80
2023/03/26 10:40:05;;;;;;;28.80;26.30;;;;;;;;;;5020385;28;21047;-80
2023/03/26 10:42:41;;;;;;;28.43;26.00;;;;;;;;;;5011832;28;20427;-81
2023/03/26 10:45:20;;;;;;;30.87;27.53;;;;;;;;;;5020036;28;20970;-81
2023/03/26 10:47:58;;;;;;;28.83;25.97;;;;;;;;;;5019552;28;20986;-81
2023/03/26 10:50:32;;;;;;;32.20;27.27;;;;;;;;;;5019121;28;20436;-81
2023/03/26 10:53:02;;;;;;;30.13;26.90;;;;;;;;;;5019355;28;20407;-81
2023/03/26 10:55:32;;;;;;;27.40;25.00;;;;;;;;;;5019277;28;20443;-79
2023/03/26 10:58:02;;;;;;;29.77;26.63;;;;;;;;;;5020049;28;20477;-80
2023/03/26 11:00:30;;;;;;;27.53;24.57;;;;;;;;;;5020027;28;20423;-81
2023/03/26 11:03:07;;;;;;;28.50;25.50;;;;;;;;;;5019864;28;20475;-81
2023/03/26 11:05:45;;;;;;;28.57;25.50;;;;;;;;;;5019702;28;20848;-80
2023/03/26 11:08:15;;;;;;;25.20;22.97;;;;;;;;;;5019825;28;20464;-81
2023/03/26 11:10:48;;;;;;;27.63;24.90;;;;;;;;;;5020232;28;20909;-81
2023/03/26 11:13:19;;;;;;;35.53;26.37;;;;;;;;;;5018984;28;20452;-81
2023/03/26 11:15:48;;;;;;;29.90;23.37;;;;;;;;;;5017789;28;20510;-80
2023/03/26 11:18:17;;;;;;;23.10;21.10;;;;;;;;;;5017798;28;20459;-81
2023/03/26 11:20:49;;;;;;;22.20;20.53;;;;;;;;;;5018079;28;20453;-86
2023/03/26 11:23:21;;;;;;;23.73;21.60;;;;;;;;;;5018708;28;20487;-81
2023/03/26 11:25:58;;;;;;;24.00;20.50;;;;;;;;;;5017934;28;20501;-81
2023/03/26 11:28:32;;;;;;;23.77;21.33;;;;;;;;;;5018221;28;20446;-81
2023/03/26 11:31:02;;;;;;;21.87;20.07;;;;;;;;;;5018667;28;20570;-81
2023/03/26 11:33:32;;;;;;;24.90;22.07;;;;;;;;;;5018574;28;20437;-82
2023/03/26 11:36:03;;;;;;;23.50;20.93;;;;;;;;;;5021415;28;20845;-81
2023/03/26 11:38:36;;;;;;;29.03;21.73;;;;;;;;;;5019602;28;20539;-82
2023/03/26 11:41:04;;;;;;;22.70;20.83;;;;;;;;;;5021165;28;20531;-82
2023/03/26 11:43:33;;;;;;;26.40;21.13;;;;;;;;;;5019261;28;20483;-81
2023/03/26 11:46:02;;;;;;;22.50;20.33;;;;;;;;;;5017823;28;20988;-81
2023/03/26 11:48:31;;;;;;;23.70;21.00;;;;;;;;;;5018725;28;20491;-81
2023/03/26 11:51:01;;;;;;;24.63;22.17;;;;;;;;;;5019143;28;20423;-81
2023/03/26 11:53:33;;;;;;;21.20;19.50;;;;;;;;;;5018683;28;20463;-81
2023/03/26 11:56:02;;;;;;;23.00;21.10;;;;;;;;;;5018667;28;20449;-81
2023/03/26 11:58:32;;;;;;;23.73;21.50;;;;;;;;;;5018798;28;20454;-81
2023/03/26 12:01:04;;;;;;;19.73;18.53;;;;;;;;;;5019539;28;20438;-81
2023/03/26 12:03:31;;;;;;;19.43;18.33;;;;;;;;;;5019512;28;20408;-81
2023/03/26 12:05:59;;;;;;;22.27;20.77;;;;;;;;;;5018747;28;20480;-81
2023/03/26 12:08:31;;;;;;;22.63;20.93;;;;;;;;;;5020412;28;20455;-81
2023/03/26 12:11:03;;;;;;;25.90;23.90;;;;;;;;;;5020636;28;20453;-81
2023/03/26 12:13:34;;;;;;;25.87;22.20;;;;;;;;;;5020706;28;20937;-81
2023/03/26 12:16:05;;;;;;;55.67;52.20;;;;;;;;;;5022232;28;20402;-82
2023/03/26 12:18:32;;;;;;;59.07;55.70;;;;;;;;;;5022174;28;20988;-82
2023/03/26 12:21:04;;;;;;;55.13;52.03;;;;;;;;;;5023895;28;20452;-82
2023/03/26 12:23:36;;;;;;;56.33;53.23;;;;;;;;;;5024108;28;20462;-82
2023/03/26 12:26:13;;;;;;;59.33;56.13;;;;;;;;;;5023165;28;20562;-82
2023/03/26 12:28:44;;;;;;;62.23;58.83;;;;;;;;;;5022854;28;20761;-81
2023/03/26 12:31:17;;;;;;;63.90;60.40;;;;;;;;;;5023532;28;20419;-82
2023/03/26 12:33:44;;;;;;;60.90;57.57;;;;;;;;;;5023939;28;20422;-82
2023/03/26 12:36:19;;;;;;;65.40;61.27;;;;;;;;;;5023336;28;20907;-82
2023/03/26 12:38:48;;;;;;;68.20;64.27;;;;;;;;;;5023692;28;20439;-83
2023/03/26 12:41:15;;;;;;;71.27;67.37;;;;;;;;;;5023288;28;20502;-82
2023/03/26 12:43:44;;;;;;;74.83;70.50;;;;;;;;;;5023743;28;20438;-82
2023/03/26 12:46:23;;;;;;;74.07;70.10;;;;;;;;;;5023331;28;20849;-82
2023/03/26 12:48:51;;;;;;;76.67;72.37;;;;;;;;;;5023988;28;20530;-82
2023/03/26 12:51:21;;;;;;;65.90;62.20;;;;;;;;;;5026768;28;20496;-82
2023/03/26 12:54:00;;;;;;;69.70;65.47;;;;;;;;;;5027851;28;20444;-82
2023/03/26 12:56:35;;;;;;;72.77;68.83;;;;;;;;;;5027343;28;20432;-82
2023/03/26 12:59:07;;;;;;;76.53;70.77;;;;;;;;;;5027187;28;20483;-82
2023/03/26 13:01:40;;;;;;;63.40;60.20;;;;;;;;;;5027253;28;20446;-82
2023/03/26 13:04:12;;;;;;;63.60;60.30;;;;;;;;;;5027690;28;20432;-83
2023/03/26 13:06:43;;;;;;;64.73;60.70;;;;;;;;;;5027019;28;20475;-82
2023/03/26 13:09:31;;;;;;;61.13;57.80;;;;;;;;;;5027633;28;20476;-82
2023/03/26 13:12:04;;;;;;;55.23;52.43;;;;;;;;;;5023187;28;20468;-82
2023/03/26 13:14:35;;;;;;;53.70;50.73;;;;;;;;;;5026848;28;20490;-82
2023/03/26 13:17:06;;;;;;;56.07;52.53;;;;;;;;;;5027057;28;20490;-82
2023/03/26 13:19:36;;;;;;;55.90;52.60;;;;;;;;;;5027399;28;20496;-82
2023/03/26 13:22:09;;;;;;;57.10;53.53;;;;;;;;;;5027515;28;20474;-82
2023/03/26 13:24:43;;;;;;;57.63;54.30;;;;;;;;;;5027488;28;20434;-83
2023/03/26 13:27:17;;;;;;;53.37;50.30;;;;;;;;;;5026911;28;20583;-82
2023/03/26 13:29:51;;;;;;;51.07;47.90;;;;;;;;;;5027152;28;20476;-82
2023/03/26 13:32:23;;;;;;;49.77;46.97;;;;;;;;;;5026382;28;20479;-82
2023/03/26 13:34:57;;;;;;;50.47;47.67;;;;;;;;;;5027739;28;20425;-82
2023/03/26 13:37:26;;;;;;;51.50;48.10;;;;;;;;;;5025804;28;20427;-82
2023/03/26 13:39:58;;;;;;;50.93;48.03;;;;;;;;;;5026412;28;20468;-82
2023/03/26 13:42:35;;;;;;;55.53;52.53;;;;;;;;;;5027115;28;20441;-82
2023/03/26 13:45:07;;;;;;;58.10;55.13;;;;;;;;;;5026783;28;20449;-82
2023/03/26 13:47:35;;;;;;;54.03;51.13;;;;;;;;;;5025927;28;20508;-82
2023/03/26 13:50:06;;;;;;;57.10;53.90;;;;;;;;;;5026798;28;20453;-82
2023/03/26 13:52:35;;;;;;;55.73;52.93;;;;;;;;;;5025964;28;20444;-82
2023/03/26 13:55:05;;;;;;;57.33;54.63;;;;;;;;;;5025584;28;20442;-82
2023/03/26 13:57:36;;;;;;;55.70;52.80;;;;;;;;;;5025032;28;20875;-81
2023/03/26 14:00:06;;;;;;;53.10;50.40;;;;;;;;;;5026027;28;20464;-83
2023/03/26 14:02:36;;;;;;;51.07;48.47;;;;;;;;;;5023216;28;20445;-81
2023/03/26 14:05:06;;;;;;;54.20;51.50;;;;;;;;;;5024492;28;20447;-82
2023/03/26 14:07:35;;;;;;;51.83;49.33;;;;;;;;;;5023283;28;20418;-81
2023/03/26 14:10:05;;;;;;;50.30;47.97;;;;;;;;;;5020627;28;20468;-82
2023/03/26 14:12:48;;;;;;;56.23;53.53;;;;;;;;;;5023090;28;20456;-82
2023/03/26 14:15:18;;;;;;;53.13;50.53;;;;;;;;;;5029021;28;20978;-80
2023/03/26 14:17:48;;;;;;;53.23;50.63;;;;;;;;;;5037566;28;20438;-82
2023/03/26 14:20:48;;;;;;;49.70;47.30;;;;;;;;;;5037674;28;20453;-81
2023/03/26 14:23:30;;;;;;;56.83;53.60;;;;;;;;;;5027888;28;20414;-82
2023/03/26 14:26:07;;;;;;;52.10;49.70;;;;;;;;;;5024373;28;20543;-82
2023/03/26 14:28:50;;;;;;;48.63;46.33;;;;;;;;;;5026305;28;20454;-82
2023/03/26 14:31:23;;;;;;;49.07;46.73;;;;;;;;;;5003652;28;20472;-82
2023/03/26 14:34:05;;;;;;;53.03;50.20;;;;;;;;;;5025889;28;20424;-82
2023/03/26 14:36:42;;;;;;;49.73;47.23;;;;;;;;;;5025592;28;20491;-82
2023/03/26 14:39:17;;;;;;;53.70;51.10;;;;;;;;;;5026574;28;20595;-82